Appleton, Minnesota
Current Conditions -  °F | °C
As of 8:34 PM on Thursday 20 Nov 2014 (Local Time) from KAQP Reporting Station
Clear Clear  
Wind Chill:   Ceiling: Unl
Heat Index:   Visibility: 10mi
Dew Point: -2°   Wind: 3mph
Humidity: 85%   Direction: 160°SSE
Pressure: 30.19"   Gusts: NA
Location:  45.2°N, 96.02°W
Report Text: KAQP 210234Z AUTO 16003KT 10SM CLR M17/M19 A3019 RMK AO2
Loading
Personal Weather Stations






























Interactive Weather Map New forecast layout! Learn more

10-Day Weather Forecast

Advertisements
Track Severe Weather on mobile